sensor_id;sensor_type;location;lat;lon;timestamp;P1;durP1;ratioP1;P2;durP2;ratioP2
53271;SDS011;39160;48.580;7.756;2023-01-04T00:04:28;6.78;;;4.38;;
53271;SDS011;39160;48.580;7.756;2023-01-04T00:09:18;6.10;;;3.20;;
53271;SDS011;39160;48.580;7.756;2023-01-04T00:14:10;5.95;;;3.75;;
53271;SDS011;39160;48.580;7.756;2023-01-04T00:19:08;5.40;;;4.13;;
53271;SDS011;39160;48.580;7.756;2023-01-04T00:24:00;10.85;;;3.72;;
53271;SDS011;39160;48.580;7.756;2023-01-04T00:28:54;5.97;;;3.38;;
53271;SDS011;39160;48.580;7.756;2023-01-04T00:33:46;6.68;;;4.05;;
53271;SDS011;39160;48.580;7.756;2023-01-04T00:38:37;7.00;;;3.90;;
53271;SDS011;39160;48.580;7.756;2023-01-04T00:43:29;5.97;;;3.65;;
53271;SDS011;39160;48.580;7.756;2023-01-04T00:48:19;8.35;;;3.25;;
53271;SDS011;39160;48.580;7.756;2023-01-04T00:53:11;9.00;;;3.97;;
53271;SDS011;39160;48.580;7.756;2023-01-04T00:58:02;5.38;;;3.08;;
53271;SDS011;39160;48.580;7.756;2023-01-04T01:02:53;7.15;;;3.17;;
53271;SDS011;39160;48.580;7.756;2023-01-04T01:07:44;8.85;;;3.80;;
53271;SDS011;39160;48.580;7.756;2023-01-04T01:12:34;8.25;;;3.95;;
53271;SDS011;39160;48.580;7.756;2023-01-04T01:17:25;10.82;;;4.38;;
53271;SDS011;39160;48.580;7.756;2023-01-04T01:22:16;8.48;;;4.15;;
53271;SDS011;39160;48.580;7.756;2023-01-04T01:27:06;12.38;;;5.78;;
53271;SDS011;39160;48.580;7.756;2023-01-04T01:31:57;10.30;;;4.40;;
53271;SDS011;39160;48.580;7.756;2023-01-04T01:36:48;10.38;;;4.80;;
53271;SDS011;39160;48.580;7.756;2023-01-04T01:41:38;10.15;;;4.80;;
53271;SDS011;39160;48.580;7.756;2023-01-04T01:46:39;9.68;;;5.68;;
53271;SDS011;39160;48.580;7.756;2023-01-04T01:51:35;8.68;;;4.05;;
53271;SDS011;39160;48.580;7.756;2023-01-04T01:56:27;9.85;;;4.95;;
53271;SDS011;39160;48.580;7.756;2023-01-04T02:01:22;11.53;;;4.50;;
53271;SDS011;39160;48.580;7.756;2023-01-04T02:06:16;8.30;;;4.25;;
53271;SDS011;39160;48.580;7.756;2023-01-04T02:11:11;9.77;;;4.90;;
53271;SDS011;39160;48.580;7.756;2023-01-04T02:16:09;11.07;;;5.05;;
53271;SDS011;39160;48.580;7.756;2023-01-04T02:21:21;10.52;;;4.80;;
53271;SDS011;39160;48.580;7.756;2023-01-04T02:36:54;7.72;;;3.45;;
53271;SDS011;39160;48.580;7.756;2023-01-04T02:47:11;8.05;;;4.28;;
53271;SDS011;39160;48.580;7.756;2023-01-04T02:52:07;6.50;;;3.70;;
53271;SDS011;39160;48.580;7.756;2023-01-04T03:12:55;5.88;;;3.42;;
53271;SDS011;39160;48.580;7.756;2023-01-04T03:17:52;7.80;;;3.90;;
53271;SDS011;39160;48.580;7.756;2023-01-04T03:22:58;7.03;;;3.63;;
53271;SDS011;39160;48.580;7.756;2023-01-04T03:28:20;6.47;;;3.38;;
53271;SDS011;39160;48.580;7.756;2023-01-04T03:33:32;6.93;;;3.92;;
53271;SDS011;39160;48.580;7.756;2023-01-04T03:38:45;9.18;;;3.70;;
53271;SDS011;39160;48.580;7.756;2023-01-04T03:44:07;7.38;;;4.35;;
53271;SDS011;39160;48.580;7.756;2023-01-04T03:49:44;7.55;;;4.00;;
53271;SDS011;39160;48.580;7.756;2023-01-04T03:54:38;8.15;;;4.45;;
53271;SDS011;39160;48.580;7.756;2023-01-04T03:59:34;7.93;;;3.65;;
53271;SDS011;39160;48.580;7.756;2023-01-04T04:04:30;7.45;;;3.55;;
53271;SDS011;39160;48.580;7.756;2023-01-04T04:09:39;7.18;;;3.45;;
53271;SDS011;39160;48.580;7.756;2023-01-04T04:14:29;7.28;;;3.13;;
53271;SDS011;39160;48.580;7.756;2023-01-04T04:19:20;7.50;;;3.80;;
53271;SDS011;39160;48.580;7.756;2023-01-04T04:24:21;6.70;;;3.92;;
53271;SDS011;39160;48.580;7.756;2023-01-04T04:29:14;7.93;;;3.35;;
53271;SDS011;39160;48.580;7.756;2023-01-04T04:34:05;4.60;;;2.47;;
53271;SDS011;39160;48.580;7.756;2023-01-04T04:38:56;4.85;;;2.80;;
53271;SDS011;39160;48.580;7.756;2023-01-04T04:43:46;4.05;;;2.97;;
53271;SDS011;39160;48.580;7.756;2023-01-04T04:48:37;5.28;;;2.25;;
53271;SDS011;39160;48.580;7.756;2023-01-04T04:53:27;4.38;;;2.05;;
53271;SDS011;39160;48.580;7.756;2023-01-04T04:58:18;5.47;;;2.50;;
53271;SDS011;39160;48.580;7.756;2023-01-04T05:03:09;3.65;;;2.13;;
53271;SDS011;39160;48.580;7.756;2023-01-04T05:07:59;3.13;;;1.92;;
53271;SDS011;39160;48.580;7.756;2023-01-04T05:12:50;4.90;;;2.22;;
53271;SDS011;39160;48.580;7.756;2023-01-04T05:17:50;4.30;;;2.08;;
53271;SDS011;39160;48.580;7.756;2023-01-04T05:22:40;5.40;;;2.33;;
53271;SDS011;39160;48.580;7.756;2023-01-04T05:27:31;3.25;;;1.85;;
53271;SDS011;39160;48.580;7.756;2023-01-04T05:32:22;4.78;;;1.60;;
53271;SDS011;39160;48.580;7.756;2023-01-04T05:37:12;1.85;;;1.58;;
53271;SDS011;39160;48.580;7.756;2023-01-04T05:42:03;2.60;;;1.80;;
53271;SDS011;39160;48.580;7.756;2023-01-04T05:47:12;4.47;;;2.38;;
53271;SDS011;39160;48.580;7.756;2023-01-04T05:52:03;2.40;;;1.50;;
53271;SDS011;39160;48.580;7.756;2023-01-04T05:56:53;3.13;;;1.67;;
53271;SDS011;39160;48.580;7.756;2023-01-04T06:01:44;2.10;;;1.35;;
53271;SDS011;39160;48.580;7.756;2023-01-04T06:06:34;2.67;;;1.33;;
53271;SDS011;39160;48.580;7.756;2023-01-04T06:11:25;2.30;;;1.13;;
53271;SDS011;39160;48.580;7.756;2023-01-04T06:16:16;2.10;;;1.23;;
53271;SDS011;39160;48.580;7.756;2023-01-04T06:21:06;3.25;;;1.60;;
53271;SDS011;39160;48.580;7.756;2023-01-04T06:25:57;5.05;;;1.88;;
53271;SDS011;39160;48.580;7.756;2023-01-04T06:30:47;2.13;;;1.10;;
53271;SDS011;39160;48.580;7.756;2023-01-04T06:35:38;2.13;;;1.08;;
53271;SDS011;39160;48.580;7.756;2023-01-04T06:40:29;1.55;;;0.90;;
53271;SDS011;39160;48.580;7.756;2023-01-04T06:45:19;2.65;;;1.35;;
53271;SDS011;39160;48.580;7.756;2023-01-04T06:50:10;4.07;;;1.38;;
53271;SDS011;39160;48.580;7.756;2023-01-04T06:55:01;2.83;;;1.30;;
53271;SDS011;39160;48.580;7.756;2023-01-04T06:59:51;1.88;;;1.40;;
53271;SDS011;39160;48.580;7.756;2023-01-04T07:04:42;6.28;;;2.65;;
53271;SDS011;39160;48.580;7.756;2023-01-04T07:09:33;6.53;;;2.15;;
53271;SDS011;39160;48.580;7.756;2023-01-04T07:14:25;1.67;;;1.40;;
53271;SDS011;39160;48.580;7.756;2023-01-04T07:19:15;1.95;;;1.38;;
53271;SDS011;39160;48.580;7.756;2023-01-04T07:24:06;2.30;;;0.93;;
53271;SDS011;39160;48.580;7.756;2023-01-04T07:28:56;1.95;;;1.33;;
53271;SDS011;39160;48.580;7.756;2023-01-04T07:34:06;1.52;;;1.00;;
53271;SDS011;39160;48.580;7.756;2023-01-04T07:38:59;4.50;;;1.02;;
53271;SDS011;39160;48.580;7.756;2023-01-04T07:43:50;0.98;;;0.73;;
53271;SDS011;39160;48.580;7.756;2023-01-04T07:48:41;1.67;;;0.90;;
53271;SDS011;39160;48.580;7.756;2023-01-04T07:53:32;0.90;;;0.70;;
53271;SDS011;39160;48.580;7.756;2023-01-04T07:58:23;3.08;;;0.80;;
53271;SDS011;39160;48.580;7.756;2023-01-04T08:03:14;2.03;;;0.85;;
53271;SDS011;39160;48.580;7.756;2023-01-04T08:08:05;2.22;;;1.15;;
53271;SDS011;39160;48.580;7.756;2023-01-04T08:12:58;1.42;;;0.80;;
53271;SDS011;39160;48.580;7.756;2023-01-04T08:17:49;1.77;;;0.90;;
53271;SDS011;39160;48.580;7.756;2023-01-04T08:22:40;2.13;;;1.15;;
53271;SDS011;39160;48.580;7.756;2023-01-04T08:27:30;1.02;;;0.82;;
53271;SDS011;39160;48.580;7.756;2023-01-04T08:32:22;4.20;;;1.17;;
53271;SDS011;39160;48.580;7.756;2023-01-04T08:37:12;1.08;;;0.85;;
53271;SDS011;39160;48.580;7.756;2023-01-04T08:42:03;1.35;;;0.70;;
53271;SDS011;39160;48.580;7.756;2023-01-04T08:46:53;1.38;;;0.98;;
53271;SDS011;39160;48.580;7.756;2023-01-04T08:51:44;1.63;;;0.80;;
53271;SDS011;39160;48.580;7.756;2023-01-04T08:56:36;0.98;;;0.75;;
53271;SDS011;39160;48.580;7.756;2023-01-04T09:01:26;1.73;;;0.80;;
53271;SDS011;39160;48.580;7.756;2023-01-04T09:06:17;2.70;;;0.82;;
53271;SDS011;39160;48.580;7.756;2023-01-04T09:11:12;5.38;;;1.38;;
53271;SDS011;39160;48.580;7.756;2023-01-04T09:16:05;1.77;;;1.35;;
53271;SDS011;39160;48.580;7.756;2023-01-04T09:20:59;1.60;;;1.02;;
53271;SDS011;39160;48.580;7.756;2023-01-04T09:25:54;1.25;;;0.80;;
53271;SDS011;39160;48.580;7.756;2023-01-04T09:30:48;1.23;;;1.08;;
53271;SDS011;39160;48.580;7.756;2023-01-04T09:35:38;2.38;;;1.27;;
53271;SDS011;39160;48.580;7.756;2023-01-04T09:41:13;2.13;;;1.15;;
53271;SDS011;39160;48.580;7.756;2023-01-04T09:46:03;3.33;;;1.40;;
53271;SDS011;39160;48.580;7.756;2023-01-04T09:50:57;3.25;;;1.30;;
53271;SDS011;39160;48.580;7.756;2023-01-04T09:55:56;1.40;;;1.02;;
53271;SDS011;39160;48.580;7.756;2023-01-04T10:01:10;4.25;;;0.90;;
53271;SDS011;39160;48.580;7.756;2023-01-04T10:06:04;1.25;;;0.70;;
53271;SDS011;39160;48.580;7.756;2023-01-04T10:11:23;2.63;;;0.97;;
53271;SDS011;39160;48.580;7.756;2023-01-04T10:21:42;1.58;;;0.90;;
53271;SDS011;39160;48.580;7.756;2023-01-04T10:26:46;2.17;;;0.90;;
53271;SDS011;39160;48.580;7.756;2023-01-04T10:31:45;1.25;;;0.73;;
53271;SDS011;39160;48.580;7.756;2023-01-04T10:36:39;1.52;;;0.85;;
53271;SDS011;39160;48.580;7.756;2023-01-04T10:41:35;1.30;;;0.68;;
53271;SDS011;39160;48.580;7.756;2023-01-04T10:46:34;3.03;;;1.00;;
53271;SDS011;39160;48.580;7.756;2023-01-04T10:51:35;1.33;;;0.95;;
53271;SDS011;39160;48.580;7.756;2023-01-04T10:56:33;1.58;;;0.82;;
53271;SDS011;39160;48.580;7.756;2023-01-04T11:01:46;2.80;;;1.48;;
53271;SDS011;39160;48.580;7.756;2023-01-04T11:06:39;1.83;;;0.88;;
53271;SDS011;39160;48.580;7.756;2023-01-04T11:11:53;4.55;;;1.05;;
53271;SDS011;39160;48.580;7.756;2023-01-04T11:16:47;1.23;;;0.80;;
53271;SDS011;39160;48.580;7.756;2023-01-04T11:21:43;2.58;;;1.10;;
53271;SDS011;39160;48.580;7.756;2023-01-04T11:26:39;2.67;;;1.15;;
53271;SDS011;39160;48.580;7.756;2023-01-04T11:36:37;1.50;;;0.90;;
53271;SDS011;39160;48.580;7.756;2023-01-04T11:41:27;2.05;;;1.10;;
53271;SDS011;39160;48.580;7.756;2023-01-04T11:51:16;1.30;;;0.90;;
53271;SDS011;39160;48.580;7.756;2023-01-04T12:01:27;1.65;;;0.80;;
53271;SDS011;39160;48.580;7.756;2023-01-04T12:06:20;1.90;;;1.08;;
53271;SDS011;39160;48.580;7.756;2023-01-04T12:11:21;4.47;;;1.40;;
53271;SDS011;39160;48.580;7.756;2023-01-04T12:16:24;1.90;;;1.20;;
53271;SDS011;39160;48.580;7.756;2023-01-04T12:21:31;3.08;;;1.10;;
53271;SDS011;39160;48.580;7.756;2023-01-04T12:26:23;1.67;;;0.90;;
53271;SDS011;39160;48.580;7.756;2023-01-04T12:40:59;2.03;;;0.80;;
53271;SDS011;39160;48.580;7.756;2023-01-04T12:45:51;1.58;;;0.70;;
53271;SDS011;39160;48.580;7.756;2023-01-04T12:51:37;1.10;;;0.65;;
53271;SDS011;39160;48.580;7.756;2023-01-04T13:02:20;2.03;;;0.70;;
53271;SDS011;39160;48.580;7.756;2023-01-04T13:07:19;2.22;;;0.75;;
53271;SDS011;39160;48.580;7.756;2023-01-04T13:17:38;1.35;;;0.70;;
53271;SDS011;39160;48.580;7.756;2023-01-04T13:22:29;1.38;;;0.70;;
53271;SDS011;39160;48.580;7.756;2023-01-04T13:27:21;1.55;;;0.80;;
53271;SDS011;39160;48.580;7.756;2023-01-04T13:37:14;1.55;;;0.70;;
53271;SDS011;39160;48.580;7.756;2023-01-04T13:42:22;1.45;;;0.77;;
53271;SDS011;39160;48.580;7.756;2023-01-04T13:47:15;1.15;;;0.60;;
53271;SDS011;39160;48.580;7.756;2023-01-04T13:52:17;0.93;;;0.65;;
53271;SDS011;39160;48.580;7.756;2023-01-04T13:57:16;1.08;;;0.82;;
53271;SDS011;39160;48.580;7.756;2023-01-04T14:02:14;1.40;;;0.80;;
53271;SDS011;39160;48.580;7.756;2023-01-04T14:07:09;1.52;;;0.85;;
53271;SDS011;39160;48.580;7.756;2023-01-04T14:12:06;1.58;;;0.98;;
53271;SDS011;39160;48.580;7.756;2023-01-04T14:21:59;1.77;;;1.58;;
53271;SDS011;39160;48.580;7.756;2023-01-04T14:26:49;1.92;;;1.17;;
53271;SDS011;39160;48.580;7.756;2023-01-04T14:31:40;1.05;;;0.70;;
53271;SDS011;39160;48.580;7.756;2023-01-04T14:36:32;1.35;;;0.50;;
53271;SDS011;39160;48.580;7.756;2023-01-04T14:41:28;1.77;;;0.73;;
53271;SDS011;39160;48.580;7.756;2023-01-04T14:46:22;1.75;;;0.90;;
53271;SDS011;39160;48.580;7.756;2023-01-04T14:51:20;2.05;;;0.60;;
53271;SDS011;39160;48.580;7.756;2023-01-04T14:56:15;1.10;;;0.50;;
53271;SDS011;39160;48.580;7.756;2023-01-04T15:01:07;1.10;;;0.65;;
53271;SDS011;39160;48.580;7.756;2023-01-04T15:05:59;1.33;;;0.60;;
53271;SDS011;39160;48.580;7.756;2023-01-04T15:10:49;1.63;;;0.60;;
53271;SDS011;39160;48.580;7.756;2023-01-04T15:15:40;0.88;;;0.43;;
53271;SDS011;39160;48.580;7.756;2023-01-04T15:20:31;3.10;;;0.73;;
53271;SDS011;39160;48.580;7.756;2023-01-04T15:25:22;1.65;;;0.68;;
53271;SDS011;39160;48.580;7.756;2023-01-04T15:30:13;2.60;;;1.25;;
53271;SDS011;39160;48.580;7.756;2023-01-04T15:35:04;1.13;;;0.65;;
53271;SDS011;39160;48.580;7.756;2023-01-04T15:39:55;1.40;;;0.63;;
53271;SDS011;39160;48.580;7.756;2023-01-04T15:44:46;1.45;;;0.80;;
53271;SDS011;39160;48.580;7.756;2023-01-04T15:49:37;0.90;;;0.73;;
53271;SDS011;39160;48.580;7.756;2023-01-04T15:54:28;1.95;;;0.85;;
53271;SDS011;39160;48.580;7.756;2023-01-04T15:59:19;0.40;;;0.40;;
53271;SDS011;39160;48.580;7.756;2023-01-04T16:04:10;1.02;;;0.60;;
53271;SDS011;39160;48.580;7.756;2023-01-04T16:09:01;1.00;;;0.60;;
53271;SDS011;39160;48.580;7.756;2023-01-04T16:13:52;1.10;;;0.40;;
53271;SDS011;39160;48.580;7.756;2023-01-04T16:18:47;1.17;;;0.70;;
53271;SDS011;39160;48.580;7.756;2023-01-04T16:23:39;1.52;;;0.68;;
53271;SDS011;39160;48.580;7.756;2023-01-04T16:28:30;1.33;;;0.55;;
53271;SDS011;39160;48.580;7.756;2023-01-04T16:33:21;0.80;;;0.50;;
53271;SDS011;39160;48.580;7.756;2023-01-04T16:38:12;1.15;;;0.45;;
53271;SDS011;39160;48.580;7.756;2023-01-04T16:43:02;0.52;;;0.45;;
53271;SDS011;39160;48.580;7.756;2023-01-04T16:47:53;1.15;;;0.50;;
53271;SDS011;39160;48.580;7.756;2023-01-04T16:52:45;2.17;;;0.50;;
53271;SDS011;39160;48.580;7.756;2023-01-04T16:57:35;2.25;;;0.65;;
53271;SDS011;39160;48.580;7.756;2023-01-04T17:02:26;3.38;;;0.85;;
53271;SDS011;39160;48.580;7.756;2023-01-04T17:07:17;2.17;;;0.90;;
53271;SDS011;39160;48.580;7.756;2023-01-04T17:12:07;0.60;;;0.47;;
53271;SDS011;39160;48.580;7.756;2023-01-04T17:16:58;0.77;;;0.50;;
53271;SDS011;39160;48.580;7.756;2023-01-04T17:21:49;1.48;;;0.82;;
53271;SDS011;39160;48.580;7.756;2023-01-04T17:26:40;1.17;;;0.63;;
53271;SDS011;39160;48.580;7.756;2023-01-04T17:31:32;0.50;;;0.47;;
53271;SDS011;39160;48.580;7.756;2023-01-04T17:36:25;2.45;;;0.80;;
53271;SDS011;39160;48.580;7.756;2023-01-04T17:46:11;2.80;;;0.90;;
53271;SDS011;39160;48.580;7.756;2023-01-04T17:55:54;3.03;;;0.98;;
53271;SDS011;39160;48.580;7.756;2023-01-04T18:00:45;3.15;;;0.60;;
53271;SDS011;39160;48.580;7.756;2023-01-04T18:05:35;1.30;;;0.70;;
53271;SDS011;39160;48.580;7.756;2023-01-04T18:10:26;0.73;;;0.60;;
53271;SDS011;39160;48.580;7.756;2023-01-04T18:15:17;0.82;;;0.60;;
53271;SDS011;39160;48.580;7.756;2023-01-04T18:20:08;1.25;;;0.55;;
53271;SDS011;39160;48.580;7.756;2023-01-04T18:24:59;1.95;;;0.70;;
53271;SDS011;39160;48.580;7.756;2023-01-04T18:29:51;0.77;;;0.70;;
53271;SDS011;39160;48.580;7.756;2023-01-04T18:34:42;1.65;;;0.80;;
53271;SDS011;39160;48.580;7.756;2023-01-04T18:39:33;0.70;;;0.60;;
53271;SDS011;39160;48.580;7.756;2023-01-04T18:44:23;1.30;;;0.70;;
53271;SDS011;39160;48.580;7.756;2023-01-04T18:49:14;2.92;;;0.93;;
53271;SDS011;39160;48.580;7.756;2023-01-04T18:54:07;1.70;;;0.80;;
53271;SDS011;39160;48.580;7.756;2023-01-04T18:58:57;2.70;;;0.80;;
53271;SDS011;39160;48.580;7.756;2023-01-04T19:03:48;2.13;;;1.08;;
53271;SDS011;39160;48.580;7.756;2023-01-04T19:08:39;2.90;;;0.73;;
53271;SDS011;39160;48.580;7.756;2023-01-04T19:13:31;1.45;;;0.70;;
53271;SDS011;39160;48.580;7.756;2023-01-04T19:18:24;2.10;;;1.00;;
53271;SDS011;39160;48.580;7.756;2023-01-04T19:23:15;2.45;;;1.45;;
53271;SDS011;39160;48.580;7.756;2023-01-04T19:28:06;1.90;;;0.98;;
53271;SDS011;39160;48.580;7.756;2023-01-04T19:32:57;1.73;;;1.10;;
53271;SDS011;39160;48.580;7.756;2023-01-04T19:37:48;1.05;;;0.65;;
53271;SDS011;39160;48.580;7.756;2023-01-04T19:42:39;1.10;;;0.65;;
53271;SDS011;39160;48.580;7.756;2023-01-04T19:47:30;1.90;;;1.00;;
53271;SDS011;39160;48.580;7.756;2023-01-04T19:52:21;1.45;;;0.60;;
53271;SDS011;39160;48.580;7.756;2023-01-04T19:57:11;2.03;;;0.82;;
53271;SDS011;39160;48.580;7.756;2023-01-04T20:02:02;2.03;;;1.48;;
53271;SDS011;39160;48.580;7.756;2023-01-04T20:06:54;1.05;;;0.70;;
53271;SDS011;39160;48.580;7.756;2023-01-04T20:11:45;0.82;;;0.60;;
53271;SDS011;39160;48.580;7.756;2023-01-04T20:16:36;1.52;;;0.70;;
53271;SDS011;39160;48.580;7.756;2023-01-04T20:21:26;1.52;;;0.60;;
53271;SDS011;39160;48.580;7.756;2023-01-04T20:26:17;0.98;;;0.70;;
53271;SDS011;39160;48.580;7.756;2023-01-04T20:31:09;1.13;;;0.65;;
53271;SDS011;39160;48.580;7.756;2023-01-04T20:36:06;1.73;;;0.57;;
53271;SDS011;39160;48.580;7.756;2023-01-04T20:40:59;0.50;;;0.45;;
53271;SDS011;39160;48.580;7.756;2023-01-04T20:45:50;0.82;;;0.50;;
53271;SDS011;39160;48.580;7.756;2023-01-04T20:50:41;15.02;;;7.70;;
53271;SDS011;39160;48.580;7.756;2023-01-04T20:55:35;3.25;;;0.70;;
53271;SDS011;39160;48.580;7.756;2023-01-04T21:00:30;1.10;;;0.73;;
53271;SDS011;39160;48.580;7.756;2023-01-04T21:05:21;1.30;;;0.68;;
53271;SDS011;39160;48.580;7.756;2023-01-04T21:10:11;1.98;;;0.82;;
53271;SDS011;39160;48.580;7.756;2023-01-04T21:15:02;1.00;;;0.60;;
53271;SDS011;39160;48.580;7.756;2023-01-04T21:19:53;0.70;;;0.52;;
53271;SDS011;39160;48.580;7.756;2023-01-04T21:24:43;0.77;;;0.57;;
53271;SDS011;39160;48.580;7.756;2023-01-04T21:29:34;0.52;;;0.40;;
53271;SDS011;39160;48.580;7.756;2023-01-04T21:34:24;0.63;;;0.40;;
53271;SDS011;39160;48.580;7.756;2023-01-04T21:39:17;1.33;;;0.50;;
53271;SDS011;39160;48.580;7.756;2023-01-04T21:44:07;1.20;;;0.60;;
53271;SDS011;39160;48.580;7.756;2023-01-04T21:48:58;2.22;;;0.70;;
53271;SDS011;39160;48.580;7.756;2023-01-04T21:53:53;0.90;;;0.38;;
53271;SDS011;39160;48.580;7.756;2023-01-04T21:58:44;0.75;;;0.40;;
53271;SDS011;39160;48.580;7.756;2023-01-04T22:03:34;0.40;;;0.40;;
53271;SDS011;39160;48.580;7.756;2023-01-04T22:08:25;0.68;;;0.38;;
53271;SDS011;39160;48.580;7.756;2023-01-04T22:13:16;0.68;;;0.40;;
53271;SDS011;39160;48.580;7.756;2023-01-04T22:18:06;0.70;;;0.47;;
53271;SDS011;39160;48.580;7.756;2023-01-04T22:22:57;1.33;;;0.88;;
53271;SDS011;39160;48.580;7.756;2023-01-04T22:27:48;1.35;;;0.50;;
53271;SDS011;39160;48.580;7.756;2023-01-04T22:32:39;0.57;;;0.32;;
53271;SDS011;39160;48.580;7.756;2023-01-04T22:37:30;1.55;;;0.50;;
53271;SDS011;39160;48.580;7.756;2023-01-04T22:42:20;1.05;;;0.60;;
53271;SDS011;39160;48.580;7.756;2023-01-04T22:47:11;2.13;;;0.55;;
53271;SDS011;39160;48.580;7.756;2023-01-04T22:52:01;0.63;;;0.47;;
53271;SDS011;39160;48.580;7.756;2023-01-04T22:56:52;0.50;;;0.40;;
53271;SDS011;39160;48.580;7.756;2023-01-04T23:01:43;1.02;;;0.40;;
53271;SDS011;39160;48.580;7.756;2023-01-04T23:06:34;0.88;;;0.30;;
53271;SDS011;39160;48.580;7.756;2023-01-04T23:11:25;0.90;;;0.50;;
53271;SDS011;39160;48.580;7.756;2023-01-04T23:16:17;0.98;;;0.50;;
53271;SDS011;39160;48.580;7.756;2023-01-04T23:21:08;1.02;;;0.70;;
53271;SDS011;39160;48.580;7.756;2023-01-04T23:26:03;0.68;;;0.45;;
53271;SDS011;39160;48.580;7.756;2023-01-04T23:31:01;0.88;;;0.40;;
53271;SDS011;39160;48.580;7.756;2023-01-04T23:40:47;1.02;;;0.40;;
53271;SDS011;39160;48.580;7.756;2023-01-04T23:45:37;0.38;;;0.28;;
53271;SDS011;39160;48.580;7.756;2023-01-04T23:50:28;1.17;;;0.47;;
53271;SDS011;39160;48.580;7.756;2023-01-04T23:55:19;0.22;;;0.15;;
